createdAt,value
2023-05-22T00:01:56.337Z,98852.03
2023-05-22T00:04:23.620Z,98859.06
2023-05-22T00:06:50.392Z,98848.31
2023-05-22T00:09:17.510Z,98856.19
2023-05-22T00:11:44.356Z,98853.44
2023-05-22T00:14:13.524Z,98853.13
2023-05-22T00:16:41.296Z,98850.75
2023-05-22T00:19:17.060Z,98851.59
2023-05-22T00:21:44.132Z,98854.16
2023-05-22T00:24:11.175Z,98853.50
2023-05-22T00:26:37.970Z,98850.75
2023-05-22T00:29:05.955Z,98846.47
2023-05-22T00:31:32.867Z,98841.34
2023-05-22T00:34:00.091Z,98847.34
2023-05-22T00:36:26.931Z,98837.25
2023-05-22T00:38:54.026Z,98838.81
2023-05-22T00:41:22.293Z,98833.19
2023-05-22T00:43:51.095Z,98840.88
2023-05-22T00:46:21.591Z,98833.84
2023-05-22T00:48:49.275Z,98831.50
2023-05-22T00:51:16.068Z,98829.63
2023-05-22T00:53:43.582Z,98836.09
2023-05-22T00:56:10.411Z,98837.16
2023-05-22T00:58:37.639Z,98836.63
2023-05-22T01:01:05.503Z,98836.63
2023-05-22T01:03:33.780Z,98832.88
2023-05-22T01:06:01.233Z,98835.09
2023-05-22T01:08:28.359Z,98833.59
2023-05-22T01:11:00.902Z,98837.84
2023-05-22T01:14:18.334Z,98827.59
2023-05-22T01:16:54.811Z,98830.53
2023-05-22T01:19:47.702Z,98837.16
2023-05-22T01:22:26.022Z,98832.72
2023-05-22T01:25:17.018Z,98832.22
2023-05-22T01:27:56.255Z,98829.66
2023-05-22T01:30:49.355Z,98829.13
2023-05-22T01:33:17.186Z,98825.41
2023-05-22T01:35:46.076Z,98828.44
2023-05-22T01:38:12.822Z,98824.34
2023-05-22T01:40:40.053Z,98825.69
2023-05-22T01:43:08.072Z,98827.75
2023-05-22T01:45:35.170Z,98829.13
2023-05-22T01:48:02.039Z,98832.88
2023-05-22T01:50:29.218Z,98830.28
2023-05-22T01:53:11.514Z,98826.56
2023-05-22T01:55:46.289Z,98829.44
2023-05-22T01:59:05.629Z,98831.13
2023-05-22T02:01:32.924Z,98827.72
2023-05-22T02:04:00.235Z,98822.09
2023-05-22T02:06:28.960Z,98814.41
2023-05-22T02:08:55.679Z,98822.94
2023-05-22T02:11:22.782Z,98825.31
2023-05-22T02:13:49.650Z,98826.53
2023-05-22T02:16:16.816Z,98831.81
2023-05-22T02:18:44.525Z,98829.41
2023-05-22T02:21:11.807Z,98827.53
2023-05-22T02:23:38.562Z,98827.00
2023-05-22T02:26:05.853Z,98825.28
2023-05-22T02:28:32.967Z,98829.22
2023-05-22T02:31:00.065Z,98826.50
2023-05-22T02:33:27.056Z,98822.91
2023-05-22T02:35:54.275Z,98819.81
2023-05-22T02:38:21.049Z,98821.34
2023-05-22T02:40:48.087Z,98817.41
2023-05-22T02:43:14.817Z,98824.22
2023-05-22T02:45:41.911Z,98816.88
2023-05-22T02:48:08.679Z,98823.84
2023-05-22T02:50:35.716Z,98823.84
2023-05-22T02:53:02.712Z,98819.75
2023-05-22T02:55:29.742Z,98820.09
2023-05-22T02:57:56.538Z,98823.97
2023-05-22T03:00:23.698Z,98821.75
2023-05-22T03:02:50.635Z,98820.19
2023-05-22T03:05:18.279Z,98819.50
2023-05-22T03:07:48.179Z,98822.88
2023-05-22T03:10:16.002Z,98823.56
2023-05-22T03:12:42.951Z,98818.41
2023-05-22T03:15:11.113Z,98819.59
2023-05-22T03:17:37.923Z,98820.47
2023-05-22T03:20:05.619Z,98822.09
2023-05-22T03:22:32.708Z,98819.06
2023-05-22T03:24:59.778Z,98826.56
2023-05-22T03:27:26.500Z,98830.59
2023-05-22T03:29:53.662Z,98830.59
2023-05-22T03:32:20.745Z,98833.69
2023-05-22T03:34:47.811Z,98825.09
2023-05-22T03:37:14.585Z,98828.03
2023-05-22T03:39:41.667Z,98833.78
2023-05-22T03:42:08.422Z,98836.00
2023-05-22T03:44:35.552Z,98839.41
2023-05-22T03:47:02.337Z,98841.09
2023-05-22T03:49:29.376Z,98837.84
2023-05-22T03:51:56.171Z,98834.94
2023-05-22T03:54:23.223Z,98828.28
2023-05-22T03:56:50.106Z,98834.25
2023-05-22T03:59:17.280Z,98834.44
2023-05-22T04:01:44.041Z,98836.16
2023-05-22T04:04:12.198Z,98833.59
2023-05-22T04:06:43.245Z,98835.13
2023-05-22T04:09:11.830Z,98830.69
2023-05-22T04:11:42.441Z,98835.63
2023-05-22T04:14:09.682Z,98828.50
2023-05-22T04:16:36.552Z,98832.06
2023-05-22T04:19:03.838Z,98828.75
2023-05-22T04:21:34.155Z,98826.16
2023-05-22T04:24:02.176Z,98831.81
2023-05-22T04:26:32.155Z,98831.81
2023-05-22T04:28:59.312Z,98830.13
2023-05-22T04:31:26.154Z,98833.69
2023-05-22T04:33:54.695Z,98827.09
2023-05-22T04:36:26.695Z,98826.22
2023-05-22T04:38:54.126Z,98822.84
2023-05-22T04:41:22.620Z,98824.03
2023-05-22T04:43:49.956Z,98824.03
2023-05-22T04:46:16.832Z,98820.81
2023-05-22T04:48:44.294Z,98815.56
2023-05-22T04:51:11.491Z,98817.25
2023-05-22T04:53:38.911Z,98821.22
2023-05-22T04:56:06.571Z,98810.13
2023-05-22T04:58:33.640Z,98817.84
2023-05-22T05:01:00.504Z,98814.41
2023-05-22T05:03:28.521Z,98813.28
2023-05-22T05:05:56.766Z,98818.72
2023-05-22T05:08:23.863Z,98812.25
2023-05-22T05:10:50.844Z,98807.50
2023-05-22T05:13:17.923Z,98806.16
2023-05-22T05:15:44.805Z,98808.34
2023-05-22T05:18:12.364Z,98811.63
2023-05-22T05:20:39.417Z,98816.25
2023-05-22T05:23:06.679Z,98821.56
2023-05-22T05:25:33.451Z,98820.22
2023-05-22T05:28:00.608Z,98818.00
2023-05-22T05:30:30.039Z,98821.25
2023-05-22T05:32:57.148Z,98816.63
2023-05-22T05:35:23.957Z,98816.97
2023-05-22T05:37:51.768Z,98821.44
2023-05-22T05:40:18.643Z,98817.31
2023-05-22T05:42:45.764Z,98814.94
2023-05-22T05:45:13.336Z,98807.44
2023-05-22T05:47:40.857Z,98814.28
2023-05-22T05:50:07.999Z,98812.75
2023-05-22T05:52:35.140Z,98812.09
2023-05-22T05:55:02.003Z,98809.84
2023-05-22T05:57:29.722Z,98807.97
2023-05-22T05:59:57.024Z,98810.03
2023-05-22T06:02:24.575Z,98806.59
2023-05-22T06:04:51.472Z,98804.53
2023-05-22T06:07:18.558Z,98809.00
2023-05-22T06:09:45.436Z,98807.09
2023-05-22T06:12:12.876Z,98809.13
2023-05-22T06:14:42.607Z,98805.03
2023-05-22T06:17:09.975Z,98808.25
2023-05-22T06:19:37.439Z,98800.72
2023-05-22T06:22:04.823Z,98804.50
2023-05-22T06:24:32.627Z,98806.84
2023-05-22T06:27:02.464Z,98815.69
2023-05-22T06:29:29.297Z,98805.81
2023-05-22T06:31:56.531Z,98805.81
2023-05-22T06:34:23.481Z,98806.97
2023-05-22T06:36:50.601Z,98803.56
2023-05-22T06:39:17.933Z,98803.69
2023-05-22T06:41:45.498Z,98801.94
2023-05-22T06:44:12.996Z,98808.22
2023-05-22T06:46:40.095Z,98807.03
2023-05-22T06:49:06.964Z,98799.47
2023-05-22T06:51:34.362Z,98808.66
2023-05-22T06:54:01.139Z,98809.69
2023-05-22T06:56:28.265Z,98805.03
2023-05-22T06:58:55.099Z,98815.78
2023-05-22T07:01:23.335Z,98812.19
2023-05-22T07:03:50.188Z,98803.91
2023-05-22T07:06:18.319Z,98804.75
2023-05-22T07:08:45.248Z,98809.78
2023-05-22T07:11:12.350Z,98799.81
2023-05-22T07:13:39.107Z,98797.38
2023-05-22T07:16:06.589Z,98801.44
2023-05-22T07:18:33.669Z,98792.69
2023-05-22T07:21:01.604Z,98793.63
2023-05-22T07:23:28.388Z,98793.09
2023-05-22T07:25:55.471Z,98792.84
2023-05-22T07:28:22.186Z,98795.31
2023-05-22T07:30:49.212Z,98794.75
2023-05-22T07:33:16.165Z,98790.94
2023-05-22T07:35:43.787Z,98787.25
2023-05-22T07:38:10.689Z,98785.47
2023-05-22T07:40:38.111Z,98783.66
2023-05-22T07:43:05.226Z,98784.41
2023-05-22T07:45:32.583Z,98780.72
2023-05-22T07:47:59.467Z,98779.56
2023-05-22T07:50:27.075Z,98781.75
2023-05-22T07:52:53.813Z,98786.09
2023-05-22T07:55:20.908Z,98780.69
2023-05-22T07:57:47.670Z,98780.22
2023-05-22T08:00:17.011Z,98779.44
2023-05-22T08:02:44.145Z,98778.50
2023-05-22T08:05:12.536Z,98777.97
2023-05-22T08:07:39.537Z,98775.53
2023-05-22T08:12:51.421Z,98776.56
2023-05-22T08:15:18.582Z,98771.97
2023-05-22T08:17:45.415Z,98768.00
2023-05-22T08:20:13.196Z,98769.59
2023-05-22T08:22:41.352Z,98755.06
2023-05-22T08:25:09.277Z,98765.53
2023-05-22T08:27:36.180Z,98774.47
2023-05-22T08:30:04.651Z,98767.50
2023-05-22T08:32:31.712Z,98764.16
2023-05-22T08:34:59.586Z,98758.50
2023-05-22T08:37:26.476Z,98763.88
2023-05-22T08:39:53.613Z,98766.84
2023-05-22T08:42:20.484Z,98759.50
2023-05-22T08:44:47.636Z,98763.63
2023-05-22T08:47:15.182Z,98757.28
2023-05-22T08:49:42.446Z,98756.84
2023-05-22T08:52:21.093Z,98759.03
2023-05-22T08:54:52.986Z,98754.22
2023-05-22T08:57:20.548Z,98759.53
2023-05-22T08:59:47.586Z,98754.91
2023-05-22T09:02:14.385Z,98756.41
2023-05-22T09:04:41.760Z,98761.75
2023-05-22T09:07:09.191Z,98756.25
2023-05-22T09:09:37.192Z,98751.66
2023-05-22T09:12:06.503Z,98755.06
2023-05-22T09:14:40.609Z,98754.25
2023-05-22T09:17:08.506Z,98751.94
2023-05-22T09:19:36.084Z,98757.03
2023-05-22T09:22:06.913Z,98757.25
2023-05-22T09:24:44.983Z,98752.16
2023-05-22T09:27:11.908Z,98753.88
2023-05-22T09:29:56.819Z,98748.81
2023-05-22T09:32:23.873Z,98747.09
2023-05-22T09:34:51.120Z,98749.00
2023-05-22T09:37:18.091Z,98756.25
2023-05-22T09:39:46.412Z,98753.47
2023-05-22T09:42:15.699Z,98748.84
2023-05-22T09:44:44.286Z,98746.06
2023-05-22T09:47:11.616Z,98748.19
2023-05-22T09:49:42.618Z,98747.09
2023-05-22T09:52:09.902Z,98744.53
2023-05-22T09:54:37.293Z,98737.53
2023-05-22T09:57:04.623Z,98743.28
2023-05-22T09:59:33.171Z,98742.59
2023-05-22T10:02:02.183Z,98741.31
2023-05-22T10:04:30.658Z,98739.78
2023-05-22T10:06:57.504Z,98736.19
2023-05-22T10:09:26.341Z,98734.03
2023-05-22T10:11:53.834Z,98738.69
2023-05-22T10:14:20.924Z,98741.63
2023-05-22T10:16:47.698Z,98739.25
2023-05-22T10:19:14.765Z,98733.91
2023-05-22T10:21:41.719Z,98729.47
2023-05-22T10:24:08.863Z,98729.47
2023-05-22T10:26:35.675Z,98732.00
2023-05-22T10:29:05.319Z,98725.13
2023-05-22T10:31:47.820Z,98729.56
2023-05-22T10:34:24.570Z,98728.66
2023-05-22T10:37:05.998Z,98731.41
2023-05-22T10:39:47.772Z,98723.09
2023-05-22T10:42:14.588Z,98727.72
2023-05-22T10:44:43.394Z,98721.09
2023-05-22T10:47:11.471Z,98725.94
2023-05-22T10:49:42.867Z,98711.28
2023-05-22T10:52:09.992Z,98721.44
2023-05-22T10:54:43.126Z,98708.22
2023-05-22T10:57:17.203Z,98710.53
2023-05-22T10:59:47.085Z,98705.59
2023-05-22T11:02:31.330Z,98714.47
2023-05-22T11:05:25.441Z,98709.31
2023-05-22T11:07:52.285Z,98704.44
2023-05-22T11:10:55.880Z,98706.50
2023-05-22T11:13:28.231Z,98697.91
2023-05-22T11:15:57.742Z,98705.53
2023-05-22T11:18:24.795Z,98702.91
2023-05-22T11:20:51.872Z,98706.94
2023-05-22T11:23:20.093Z,98700.69
2023-05-22T11:25:47.164Z,98701.72
2023-05-22T11:28:13.956Z,98705.50
2023-05-22T11:30:41.340Z,98698.03
2023-05-22T11:33:08.362Z,98698.19
2023-05-22T11:35:35.457Z,98694.66
2023-05-22T11:38:04.369Z,98695.50
2023-05-22T11:40:31.442Z,98705.81
2023-05-22T11:42:58.351Z,98700.28
2023-05-22T11:45:25.956Z,98699.13
2023-05-22T11:47:52.874Z,98699.13
2023-05-22T11:52:50.132Z,98701.13
2023-05-22T11:55:17.247Z,98701.91
2023-05-22T11:57:44.347Z,98692.41
2023-05-22T12:00:12.069Z,98691.56
2023-05-22T12:02:39.492Z,98692.31
2023-05-22T12:05:10.190Z,98692.47
2023-05-22T12:07:36.981Z,98697.91
2023-05-22T12:10:05.410Z,98697.19
2023-05-22T12:12:32.200Z,98689.47
2023-05-22T12:14:59.420Z,98693.00
2023-05-22T12:17:26.356Z,98691.91
2023-05-22T12:19:53.401Z,98697.34
2023-05-22T12:22:22.512Z,98689.91
2023-05-22T12:24:51.945Z,98690.28
2023-05-22T12:27:18.757Z,98679.19
2023-05-22T12:29:45.864Z,98681.47
2023-05-22T12:32:12.960Z,98674.16
2023-05-22T12:34:44.649Z,98682.25
2023-05-22T12:37:27.983Z,98679.47
2023-05-22T12:39:56.309Z,98677.44
2023-05-22T12:42:23.364Z,98678.53
2023-05-22T12:44:52.961Z,98678.03
2023-05-22T12:47:19.802Z,98663.09
2023-05-22T12:49:46.929Z,98671.16
2023-05-22T12:52:13.765Z,98668.75
2023-05-22T12:54:41.274Z,98672.53
2023-05-22T12:57:08.292Z,98670.59
2023-05-22T12:59:37.158Z,98668.63
2023-05-22T13:02:06.840Z,98662.50
2023-05-22T13:04:34.074Z,98661.53
2023-05-22T13:07:01.140Z,98660.56
2023-05-22T13:09:28.472Z,98655.66
2023-05-22T13:11:55.353Z,98659.50
2023-05-22T13:14:22.582Z,98658.41
2023-05-22T13:16:49.346Z,98663.47
2023-05-22T13:19:16.520Z,98651.88
2023-05-22T13:21:43.726Z,98647.78
2023-05-22T13:24:11.024Z,98651.16
2023-05-22T13:26:37.843Z,98643.91
2023-05-22T13:29:05.078Z,98659.47
2023-05-22T13:31:37.228Z,98651.75
2023-05-22T13:34:04.949Z,98651.28
2023-05-22T13:36:32.006Z,98647.19
2023-05-22T13:38:59.112Z,98645.97
2023-05-22T13:41:26.143Z,98634.78
2023-05-22T13:43:53.445Z,98639.00
2023-05-22T13:46:21.421Z,98638.38
2023-05-22T13:48:48.797Z,98633.09
2023-05-22T13:51:15.736Z,98638.00
2023-05-22T13:53:42.830Z,98635.59
2023-05-22T13:56:09.683Z,98633.19
2023-05-22T13:58:36.764Z,98638.22
2023-05-22T14:01:03.658Z,98623.28
2023-05-22T14:03:30.828Z,98615.53
2023-05-22T14:05:57.659Z,98626.88
2023-05-22T14:08:24.902Z,98617.13
2023-05-22T14:10:51.699Z,98617.38
2023-05-22T14:13:18.866Z,98615.78
2023-05-22T14:15:47.058Z,98616.16
2023-05-22T14:18:16.419Z,98605.41
2023-05-22T14:20:43.967Z,98616.00
2023-05-22T14:23:12.185Z,98613.34
2023-05-22T14:25:42.940Z,98612.72
2023-05-22T14:28:10.996Z,98607.81
2023-05-22T14:30:38.285Z,98611.66
2023-05-22T14:33:05.772Z,98608.03
2023-05-22T14:35:32.673Z,98608.72
2023-05-22T14:37:59.731Z,98602.34
2023-05-22T14:40:26.524Z,98603.66
2023-05-22T14:42:54.288Z,98595.94
2023-05-22T14:45:21.376Z,98597.03
2023-05-22T14:47:48.505Z,98596.41
2023-05-22T14:50:19.791Z,98597.88
2023-05-22T14:52:48.924Z,98594.50
2023-05-22T14:55:16.642Z,98597.53
2023-05-22T14:57:43.866Z,98594.84
2023-05-22T15:00:12.132Z,98588.84
2023-05-22T15:02:39.558Z,98594.16
2023-05-22T15:05:07.303Z,98587.63
2023-05-22T15:10:05.611Z,98595.63
2023-05-22T15:12:33.228Z,98586.59
2023-05-22T15:14:59.953Z,98587.69
2023-05-22T15:17:27.018Z,98586.84
2023-05-22T15:19:53.802Z,98590.59
2023-05-22T15:22:20.878Z,98585.28
2023-05-22T15:24:48.223Z,98573.59
2023-05-22T15:27:15.923Z,98580.97
2023-05-22T15:29:42.651Z,98576.59
2023-05-22T15:32:09.734Z,98578.53
2023-05-22T15:34:36.621Z,98567.34
2023-05-22T15:37:03.713Z,98562.38
2023-05-22T15:39:30.476Z,98571.19
2023-05-22T15:42:05.889Z,98560.81
2023-05-22T15:44:33.413Z,98557.78
2023-05-22T15:47:02.460Z,98560.09
2023-05-22T15:49:31.208Z,98560.34
2023-05-22T15:51:58.675Z,98556.84
2023-05-22T15:54:25.429Z,98553.72
2023-05-22T15:56:52.538Z,98552.88
2023-05-22T15:59:19.349Z,98554.94
2023-05-22T16:01:46.709Z,98546.03
2023-05-22T16:04:13.542Z,98549.63
2023-05-22T16:06:40.651Z,98551.78
2023-05-22T16:09:08.085Z,98544.16
2023-05-22T16:11:35.125Z,98548.28
2023-05-22T16:14:01.838Z,98542.63
2023-05-22T16:16:29.015Z,98547.19
2023-05-22T16:18:55.862Z,98542.97
2023-05-22T16:21:22.977Z,98550.56
2023-05-22T16:23:49.749Z,98547.41
2023-05-22T16:26:16.954Z,98547.53
2023-05-22T16:28:43.707Z,98547.66
2023-05-22T16:31:12.826Z,98549.22
2023-05-22T16:33:39.653Z,98538.97
2023-05-22T16:36:07.064Z,98547.16
2023-05-22T16:38:33.932Z,98550.78
2023-05-22T16:41:01.402Z,98551.66
2023-05-22T16:43:28.131Z,98553.06
2023-05-22T16:45:55.291Z,98552.22
2023-05-22T16:48:22.109Z,98556.81
2023-05-22T16:50:49.165Z,98563.28
2023-05-22T16:53:17.364Z,98562.81
2023-05-22T16:55:44.585Z,98571.91
2023-05-22T16:58:12.786Z,98576.81
2023-05-22T17:00:40.407Z,98565.72
2023-05-22T17:03:08.251Z,98572.34
2023-05-22T17:05:36.359Z,98569.56
2023-05-22T17:08:03.275Z,98570.91
2023-05-22T17:10:30.376Z,98576.44
2023-05-22T17:12:57.250Z,98576.75
2023-05-22T17:15:24.345Z,98580.84
2023-05-22T17:17:51.349Z,98574.56
2023-05-22T17:20:18.960Z,98576.44
2023-05-22T17:22:45.750Z,98573.09
2023-05-22T17:25:13.352Z,98571.72
2023-05-22T17:27:40.271Z,98576.25
2023-05-22T17:30:08.044Z,98568.44
2023-05-22T17:32:35.143Z,98569.94
2023-05-22T17:35:02.398Z,98573.41
2023-05-22T17:37:29.145Z,98573.56
2023-05-22T17:39:56.247Z,98573.78
2023-05-22T17:42:23.067Z,98574.38
2023-05-22T17:44:50.225Z,98575.88
2023-05-22T17:47:18.316Z,98570.28
2023-05-22T17:49:45.545Z,98569.06
2023-05-22T17:52:13.453Z,98567.19
2023-05-22T17:54:40.637Z,98575.09
2023-05-22T17:57:07.437Z,98564.69
2023-05-22T17:59:34.574Z,98568.78
2023-05-22T18:02:01.509Z,98576.44
2023-05-22T18:04:28.657Z,98567.97
2023-05-22T18:06:55.409Z,98566.97
2023-05-22T18:09:22.457Z,98574.66
2023-05-22T18:11:51.893Z,98567.03
2023-05-22T18:14:19.117Z,98562.03
2023-05-22T18:16:46.038Z,98556.34
2023-05-22T18:19:13.217Z,98555.34
2023-05-22T18:21:40.017Z,98571.50
2023-05-22T18:24:07.295Z,98567.28
2023-05-22T18:26:34.076Z,98562.41
2023-05-22T18:29:01.246Z,98558.66
2023-05-22T18:31:28.084Z,98561.22
2023-05-22T18:33:55.178Z,98563.56
2023-05-22T18:36:21.932Z,98562.53
2023-05-22T18:38:49.005Z,98567.88
2023-05-22T18:41:15.884Z,98569.63
2023-05-22T18:43:43.300Z,98565.84
2023-05-22T18:46:10.126Z,98572.03
2023-05-22T18:48:37.211Z,98564.19
2023-05-22T18:51:04.112Z,98567.00
2023-05-22T18:53:31.544Z,98572.34
2023-05-22T18:55:58.409Z,98573.44
2023-05-22T18:58:25.746Z,98577.94
2023-05-22T19:00:55.460Z,98576.66
2023-05-22T19:03:22.767Z,98573.94
2023-05-22T19:05:49.535Z,98575.44
2023-05-22T19:08:16.644Z,98577.41
2023-05-22T19:10:43.455Z,98573.19
2023-05-22T19:13:10.536Z,98576.16
2023-05-22T19:15:38.385Z,98579.34
2023-05-22T19:18:05.753Z,98574.06
2023-05-22T19:20:32.617Z,98577.03
2023-05-22T19:22:59.768Z,98578.78
2023-05-22T19:25:26.585Z,98585.09
2023-05-22T19:27:53.858Z,98583.00
2023-05-22T19:30:21.912Z,98582.16
2023-05-22T19:32:55.870Z,98582.38
2023-05-22T19:35:22.847Z,98594.25
2023-05-22T19:37:50.263Z,98594.06
2023-05-22T19:40:17.301Z,98590.44
2023-05-22T19:42:44.464Z,98595.94
2023-05-22T19:45:11.264Z,98589.41
2023-05-22T19:47:38.414Z,98593.00
2023-05-22T19:50:06.042Z,98590.69
2023-05-22T19:52:33.117Z,98585.97
2023-05-22T19:54:59.924Z,98589.78
2023-05-22T19:57:27.272Z,98585.13
2023-05-22T19:59:54.396Z,98583.22
2023-05-22T20:02:21.608Z,98576.00
2023-05-22T20:04:48.631Z,98575.13
2023-05-22T20:07:16.003Z,98571.13
2023-05-22T20:09:42.866Z,98578.72
2023-05-22T20:12:10.517Z,98572.78
2023-05-22T20:14:37.679Z,98576.38
2023-05-22T20:17:05.504Z,98577.22
2023-05-22T20:19:34.553Z,98577.81
2023-05-22T20:22:02.156Z,98573.09
2023-05-22T20:24:29.693Z,98573.28
2023-05-22T20:26:57.011Z,98570.75
2023-05-22T20:29:23.779Z,98568.63
2023-05-22T20:31:55.872Z,98572.78
2023-05-22T20:34:23.509Z,98562.22
2023-05-22T20:36:50.550Z,98565.19
2023-05-22T20:39:18.156Z,98565.16
2023-05-22T20:41:49.697Z,98564.72
2023-05-22T20:44:23.653Z,98557.47
2023-05-22T20:46:53.133Z,98562.16
2023-05-22T20:49:20.945Z,98560.22
2023-05-22T20:51:48.682Z,98555.50
2023-05-22T20:54:16.175Z,98555.59
2023-05-22T20:56:43.354Z,98555.59
2023-05-22T20:59:10.160Z,98542.69
2023-05-22T21:01:37.344Z,98547.94
2023-05-22T21:04:04.301Z,98542.78
2023-05-22T21:06:31.694Z,98545.38
2023-05-22T21:09:01.756Z,98550.78
2023-05-22T21:11:28.946Z,98547.94
2023-05-22T21:13:55.875Z,98545.66
2023-05-22T21:16:23.041Z,98546.63
2023-05-22T21:18:49.885Z,98544.53
2023-05-22T21:21:18.156Z,98546.03
2023-05-22T21:23:44.944Z,98544.50
2023-05-22T21:26:11.997Z,98539.59
2023-05-22T21:28:38.934Z,98543.00
2023-05-22T21:31:06.828Z,98540.44
2023-05-22T21:33:33.700Z,98540.88
2023-05-22T21:36:00.847Z,98537.66
2023-05-22T21:38:27.618Z,98540.50
2023-05-22T21:40:54.746Z,98540.88
2023-05-22T21:43:21.509Z,98537.84
2023-05-22T21:45:48.566Z,98533.78
2023-05-22T21:48:16.040Z,98537.19
2023-05-22T21:50:43.102Z,98539.03
2023-05-22T21:53:09.859Z,98532.91
2023-05-22T21:55:36.895Z,98538.03
2023-05-22T21:58:03.684Z,98531.91
2023-05-22T22:00:30.788Z,98538.25
2023-05-22T22:02:57.715Z,98537.38
2023-05-22T22:05:27.557Z,98535.63
2023-05-22T22:07:54.410Z,98535.38
2023-05-22T22:10:21.510Z,98531.09
2023-05-22T22:12:48.597Z,98532.66
2023-05-22T22:15:15.739Z,98531.59
2023-05-22T22:17:42.546Z,98529.16
2023-05-22T22:20:10.329Z,98530.31
2023-05-22T22:22:37.228Z,98530.97
2023-05-22T22:25:04.711Z,98536.00
2023-05-22T22:27:31.452Z,98535.34
2023-05-22T22:29:58.555Z,98532.31
2023-05-22T22:32:25.449Z,98529.78
2023-05-22T22:34:53.996Z,98536.38
2023-05-22T22:37:21.761Z,98526.88
2023-05-22T22:39:48.776Z,98526.69
2023-05-22T22:42:15.526Z,98527.44
2023-05-22T22:44:43.339Z,98524.88
2023-05-22T22:47:17.233Z,98526.13
2023-05-22T22:49:44.331Z,98522.25
2023-05-22T22:52:11.110Z,98520.28
2023-05-22T22:54:38.328Z,98524.25
2023-05-22T22:57:05.312Z,98517.47
2023-05-22T22:59:33.657Z,98519.03
2023-05-22T23:02:00.744Z,98511.19
2023-05-22T23:04:28.241Z,98507.53
2023-05-22T23:06:57.563Z,98513.25
2023-05-22T23:09:24.718Z,98506.09
2023-05-22T23:11:51.509Z,98510.50
2023-05-22T23:14:20.328Z,98506.06
2023-05-22T23:16:47.192Z,98513.16
2023-05-22T23:19:14.305Z,98513.50
2023-05-22T23:21:41.436Z,98505.91
2023-05-22T23:24:10.075Z,98505.31
2023-05-22T23:26:36.869Z,98500.88
2023-05-22T23:29:03.965Z,98502.25
2023-05-22T23:31:31.234Z,98490.19
2023-05-22T23:33:58.758Z,98494.63
2023-05-22T23:36:25.637Z,98494.16
2023-05-22T23:38:52.694Z,98486.97
2023-05-22T23:41:19.496Z,98489.59
2023-05-22T23:43:46.583Z,98491.41
2023-05-22T23:46:14.230Z,98487.13
2023-05-22T23:48:41.751Z,98483.09
2023-05-22T23:51:09.119Z,98477.78
2023-05-22T23:53:36.542Z,98476.63
2023-05-22T23:56:04.255Z,98480.09
2023-05-22T23:58:32.171Z,98476.66
